sensor_id;sensor_type;location;lat;lon;timestamp;P1;durP1;ratioP1;P2;durP2;ratioP2
64037;SDS011;54641;50.168;8.492;2023-08-21T00:00:59;9.80;;;8.70;;
64037;SDS011;54641;50.168;8.492;2023-08-21T00:03:30;11.80;;;8.50;;
64037;SDS011;54641;50.168;8.492;2023-08-21T00:06:01;9.80;;;8.30;;
64037;SDS011;54641;50.168;8.492;2023-08-21T00:08:32;10.20;;;8.60;;
64037;SDS011;54641;50.168;8.492;2023-08-21T00:11:02;10.80;;;7.70;;
64037;SDS011;54641;50.168;8.492;2023-08-21T00:13:33;12.30;;;8.70;;
64037;SDS011;54641;50.168;8.492;2023-08-21T00:16:03;11.50;;;8.60;;
64037;SDS011;54641;50.168;8.492;2023-08-21T00:18:34;11.10;;;8.60;;
64037;SDS011;54641;50.168;8.492;2023-08-21T00:21:04;9.70;;;8.70;;
64037;SDS011;54641;50.168;8.492;2023-08-21T00:23:35;11.50;;;8.70;;
64037;SDS011;54641;50.168;8.492;2023-08-21T00:26:06;9.30;;;8.20;;
64037;SDS011;54641;50.168;8.492;2023-08-21T00:28:36;9.40;;;8.00;;
64037;SDS011;54641;50.168;8.492;2023-08-21T00:31:07;12.50;;;7.90;;
64037;SDS011;54641;50.168;8.492;2023-08-21T00:33:37;11.00;;;8.10;;
64037;SDS011;54641;50.168;8.492;2023-08-21T00:36:08;10.20;;;7.90;;
64037;SDS011;54641;50.168;8.492;2023-08-21T00:38:38;10.90;;;8.20;;
64037;SDS011;54641;50.168;8.492;2023-08-21T00:41:09;11.10;;;9.10;;
64037;SDS011;54641;50.168;8.492;2023-08-21T00:43:40;10.60;;;7.80;;
64037;SDS011;54641;50.168;8.492;2023-08-21T00:46:11;10.80;;;8.50;;
64037;SDS011;54641;50.168;8.492;2023-08-21T00:48:41;9.60;;;8.30;;
64037;SDS011;54641;50.168;8.492;2023-08-21T00:51:12;11.00;;;7.50;;
64037;SDS011;54641;50.168;8.492;2023-08-21T00:53:44;14.60;;;8.60;;
64037;SDS011;54641;50.168;8.492;2023-08-21T00:56:15;10.70;;;8.40;;
64037;SDS011;54641;50.168;8.492;2023-08-21T00:58:45;11.50;;;8.30;;
64037;SDS011;54641;50.168;8.492;2023-08-21T01:01:16;9.50;;;7.90;;
64037;SDS011;54641;50.168;8.492;2023-08-21T01:03:48;15.10;;;8.50;;
64037;SDS011;54641;50.168;8.492;2023-08-21T01:06:19;10.70;;;8.30;;
64037;SDS011;54641;50.168;8.492;2023-08-21T01:08:52;10.10;;;8.50;;
64037;SDS011;54641;50.168;8.492;2023-08-21T01:11:27;11.10;;;8.70;;
64037;SDS011;54641;50.168;8.492;2023-08-21T01:14:06;10.10;;;8.00;;
64037;SDS011;54641;50.168;8.492;2023-08-21T01:16:42;11.10;;;8.70;;
64037;SDS011;54641;50.168;8.492;2023-08-21T01:19:14;12.20;;;8.40;;
64037;SDS011;54641;50.168;8.492;2023-08-21T01:21:51;12.60;;;8.60;;
64037;SDS011;54641;50.168;8.492;2023-08-21T01:24:22;10.50;;;8.30;;
64037;SDS011;54641;50.168;8.492;2023-08-21T01:26:52;10.50;;;8.10;;
64037;SDS011;54641;50.168;8.492;2023-08-21T01:29:22;11.50;;;8.20;;
64037;SDS011;54641;50.168;8.492;2023-08-21T01:31:55;12.10;;;8.00;;
64037;SDS011;54641;50.168;8.492;2023-08-21T01:34:30;10.90;;;8.40;;
64037;SDS011;54641;50.168;8.492;2023-08-21T01:37:01;12.20;;;8.20;;
64037;SDS011;54641;50.168;8.492;2023-08-21T01:39:32;10.80;;;7.70;;
64037;SDS011;54641;50.168;8.492;2023-08-21T01:42:03;10.80;;;8.10;;
64037;SDS011;54641;50.168;8.492;2023-08-21T01:44:33;11.90;;;8.70;;
64037;SDS011;54641;50.168;8.492;2023-08-21T01:47:04;11.00;;;8.10;;
64037;SDS011;54641;50.168;8.492;2023-08-21T01:49:37;10.00;;;8.10;;
64037;SDS011;54641;50.168;8.492;2023-08-21T01:52:07;11.30;;;8.10;;
64037;SDS011;54641;50.168;8.492;2023-08-21T01:54:38;15.40;;;7.90;;
64037;SDS011;54641;50.168;8.492;2023-08-21T01:57:09;11.60;;;8.80;;
64037;SDS011;54641;50.168;8.492;2023-08-21T01:59:40;11.60;;;7.90;;
64037;SDS011;54641;50.168;8.492;2023-08-21T02:02:11;12.10;;;8.50;;
64037;SDS011;54641;50.168;8.492;2023-08-21T02:04:42;9.40;;;8.40;;
64037;SDS011;54641;50.168;8.492;2023-08-21T02:07:12;10.10;;;8.20;;
64037;SDS011;54641;50.168;8.492;2023-08-21T02:09:42;9.20;;;7.20;;
64037;SDS011;54641;50.168;8.492;2023-08-21T02:12:13;10.10;;;7.50;;
64037;SDS011;54641;50.168;8.492;2023-08-21T02:14:43;10.90;;;8.00;;
64037;SDS011;54641;50.168;8.492;2023-08-21T02:17:14;10.40;;;8.00;;
64037;SDS011;54641;50.168;8.492;2023-08-21T02:19:44;10.90;;;8.50;;
64037;SDS011;54641;50.168;8.492;2023-08-21T02:22:15;11.70;;;8.40;;
64037;SDS011;54641;50.168;8.492;2023-08-21T02:24:45;10.20;;;8.30;;
64037;SDS011;54641;50.168;8.492;2023-08-21T02:27:15;10.10;;;7.90;;
64037;SDS011;54641;50.168;8.492;2023-08-21T02:29:46;12.20;;;7.70;;
64037;SDS011;54641;50.168;8.492;2023-08-21T02:32:16;9.70;;;8.40;;
64037;SDS011;54641;50.168;8.492;2023-08-21T02:34:47;13.40;;;8.40;;
64037;SDS011;54641;50.168;8.492;2023-08-21T02:37:17;11.20;;;8.40;;
64037;SDS011;54641;50.168;8.492;2023-08-21T02:39:48;10.60;;;8.30;;
64037;SDS011;54641;50.168;8.492;2023-08-21T02:42:19;12.00;;;8.60;;
64037;SDS011;54641;50.168;8.492;2023-08-21T02:44:49;11.40;;;7.70;;
64037;SDS011;54641;50.168;8.492;2023-08-21T02:47:19;11.80;;;7.60;;
64037;SDS011;54641;50.168;8.492;2023-08-21T02:49:50;10.90;;;8.40;;
64037;SDS011;54641;50.168;8.492;2023-08-21T02:52:20;11.70;;;8.30;;
64037;SDS011;54641;50.168;8.492;2023-08-21T02:54:50;13.30;;;9.20;;
64037;SDS011;54641;50.168;8.492;2023-08-21T02:57:21;10.40;;;8.20;;
64037;SDS011;54641;50.168;8.492;2023-08-21T02:59:51;13.50;;;8.60;;
64037;SDS011;54641;50.168;8.492;2023-08-21T03:02:22;9.90;;;7.90;;
64037;SDS011;54641;50.168;8.492;2023-08-21T03:04:52;11.70;;;8.20;;
64037;SDS011;54641;50.168;8.492;2023-08-21T03:07:23;11.30;;;8.30;;
64037;SDS011;54641;50.168;8.492;2023-08-21T03:09:54;10.70;;;9.30;;
64037;SDS011;54641;50.168;8.492;2023-08-21T03:12:24;10.60;;;8.60;;
64037;SDS011;54641;50.168;8.492;2023-08-21T03:14:55;11.30;;;8.50;;
64037;SDS011;54641;50.168;8.492;2023-08-21T03:17:26;11.80;;;8.90;;
64037;SDS011;54641;50.168;8.492;2023-08-21T03:19:57;11.50;;;8.80;;
64037;SDS011;54641;50.168;8.492;2023-08-21T03:22:27;11.80;;;7.60;;
64037;SDS011;54641;50.168;8.492;2023-08-21T03:24:59;11.20;;;8.50;;
64037;SDS011;54641;50.168;8.492;2023-08-21T03:27:30;12.10;;;9.50;;
64037;SDS011;54641;50.168;8.492;2023-08-21T03:30:00;11.50;;;9.00;;
64037;SDS011;54641;50.168;8.492;2023-08-21T03:32:31;13.40;;;9.50;;
64037;SDS011;54641;50.168;8.492;2023-08-21T03:35:03;11.20;;;8.70;;
64037;SDS011;54641;50.168;8.492;2023-08-21T03:37:42;12.10;;;8.40;;
64037;SDS011;54641;50.168;8.492;2023-08-21T03:40:15;11.10;;;8.60;;
64037;SDS011;54641;50.168;8.492;2023-08-21T03:42:53;13.30;;;9.00;;
64037;SDS011;54641;50.168;8.492;2023-08-21T03:45:24;10.80;;;8.30;;
64037;SDS011;54641;50.168;8.492;2023-08-21T03:47:55;11.00;;;9.10;;
64037;SDS011;54641;50.168;8.492;2023-08-21T03:50:25;10.10;;;8.10;;
64037;SDS011;54641;50.168;8.492;2023-08-21T03:52:55;13.50;;;8.20;;
64037;SDS011;54641;50.168;8.492;2023-08-21T03:55:26;12.20;;;8.60;;
64037;SDS011;54641;50.168;8.492;2023-08-21T03:57:56;13.60;;;8.90;;
64037;SDS011;54641;50.168;8.492;2023-08-21T04:00:27;10.80;;;8.70;;
64037;SDS011;54641;50.168;8.492;2023-08-21T04:02:58;10.50;;;9.30;;
64037;SDS011;54641;50.168;8.492;2023-08-21T04:05:29;10.70;;;8.20;;
64037;SDS011;54641;50.168;8.492;2023-08-21T04:07:59;12.10;;;8.90;;
64037;SDS011;54641;50.168;8.492;2023-08-21T04:10:29;11.50;;;8.70;;
64037;SDS011;54641;50.168;8.492;2023-08-21T04:13:00;10.80;;;8.10;;
64037;SDS011;54641;50.168;8.492;2023-08-21T04:15:31;12.20;;;9.10;;
64037;SDS011;54641;50.168;8.492;2023-08-21T04:18:05;13.50;;;9.90;;
64037;SDS011;54641;50.168;8.492;2023-08-21T04:20:36;12.00;;;9.20;;
64037;SDS011;54641;50.168;8.492;2023-08-21T04:23:08;10.20;;;8.50;;
64037;SDS011;54641;50.168;8.492;2023-08-21T04:25:38;11.00;;;9.00;;
64037;SDS011;54641;50.168;8.492;2023-08-21T04:28:09;13.10;;;11.70;;
64037;SDS011;54641;50.168;8.492;2023-08-21T04:30:40;12.40;;;9.70;;
64037;SDS011;54641;50.168;8.492;2023-08-21T04:33:11;11.30;;;8.50;;
64037;SDS011;54641;50.168;8.492;2023-08-21T04:35:41;10.90;;;8.30;;
64037;SDS011;54641;50.168;8.492;2023-08-21T04:38:11;10.20;;;9.10;;
64037;SDS011;54641;50.168;8.492;2023-08-21T04:40:42;13.00;;;9.80;;
64037;SDS011;54641;50.168;8.492;2023-08-21T04:43:14;12.00;;;9.00;;
64037;SDS011;54641;50.168;8.492;2023-08-21T04:45:48;10.70;;;9.10;;
64037;SDS011;54641;50.168;8.492;2023-08-21T04:48:21;11.40;;;9.50;;
64037;SDS011;54641;50.168;8.492;2023-08-21T04:50:52;10.20;;;8.80;;
64037;SDS011;54641;50.168;8.492;2023-08-21T04:53:23;13.00;;;9.00;;
64037;SDS011;54641;50.168;8.492;2023-08-21T04:55:53;11.90;;;9.10;;
64037;SDS011;54641;50.168;8.492;2023-08-21T04:58:23;13.10;;;9.40;;
64037;SDS011;54641;50.168;8.492;2023-08-21T05:00:55;13.40;;;9.10;;
64037;SDS011;54641;50.168;8.492;2023-08-21T05:03:27;13.90;;;9.40;;
64037;SDS011;54641;50.168;8.492;2023-08-21T05:05:57;13.20;;;9.70;;
64037;SDS011;54641;50.168;8.492;2023-08-21T05:08:28;10.80;;;9.30;;
64037;SDS011;54641;50.168;8.492;2023-08-21T05:10:58;12.20;;;9.10;;
64037;SDS011;54641;50.168;8.492;2023-08-21T05:13:31;14.10;;;9.10;;
64037;SDS011;54641;50.168;8.492;2023-08-21T05:16:02;11.30;;;9.00;;
64037;SDS011;54641;50.168;8.492;2023-08-21T05:18:35;12.30;;;8.90;;
64037;SDS011;54641;50.168;8.492;2023-08-21T05:21:06;10.40;;;8.80;;
64037;SDS011;54641;50.168;8.492;2023-08-21T05:23:36;12.20;;;8.50;;
64037;SDS011;54641;50.168;8.492;2023-08-21T05:26:08;11.30;;;8.80;;
64037;SDS011;54641;50.168;8.492;2023-08-21T05:28:38;12.70;;;9.00;;
64037;SDS011;54641;50.168;8.492;2023-08-21T05:31:08;11.10;;;8.50;;
64037;SDS011;54641;50.168;8.492;2023-08-21T05:33:59;11.30;;;8.80;;
64037;SDS011;54641;50.168;8.492;2023-08-21T05:36:29;10.00;;;8.00;;
64037;SDS011;54641;50.168;8.492;2023-08-21T05:39:01;11.00;;;9.00;;
64037;SDS011;54641;50.168;8.492;2023-08-21T05:41:34;9.30;;;8.30;;
64037;SDS011;54641;50.168;8.492;2023-08-21T05:44:05;9.80;;;7.80;;
64037;SDS011;54641;50.168;8.492;2023-08-21T05:46:35;9.40;;;8.50;;
64037;SDS011;54641;50.168;8.492;2023-08-21T05:49:06;12.00;;;8.90;;
64037;SDS011;54641;50.168;8.492;2023-08-21T05:51:37;11.30;;;9.50;;
64037;SDS011;54641;50.168;8.492;2023-08-21T05:54:08;10.90;;;9.30;;
64037;SDS011;54641;50.168;8.492;2023-08-21T05:56:39;9.80;;;8.20;;
64037;SDS011;54641;50.168;8.492;2023-08-21T06:04:49;10.40;;;8.80;;
64037;SDS011;54641;50.168;8.492;2023-08-21T06:07:20;11.40;;;10.00;;
64037;SDS011;54641;50.168;8.492;2023-08-21T06:09:51;12.60;;;9.20;;
64037;SDS011;54641;50.168;8.492;2023-08-21T06:12:21;9.90;;;8.90;;
64037;SDS011;54641;50.168;8.492;2023-08-21T06:14:53;11.30;;;8.60;;
64037;SDS011;54641;50.168;8.492;2023-08-21T06:17:24;9.70;;;8.50;;
64037;SDS011;54641;50.168;8.492;2023-08-21T06:19:55;9.70;;;8.40;;
64037;SDS011;54641;50.168;8.492;2023-08-21T06:24:56;10.40;;;8.80;;
64037;SDS011;54641;50.168;8.492;2023-08-21T06:27:26;9.40;;;8.50;;
64037;SDS011;54641;50.168;8.492;2023-08-21T06:29:58;10.20;;;8.40;;
64037;SDS011;54641;50.168;8.492;2023-08-21T06:32:28;11.40;;;8.90;;
64037;SDS011;54641;50.168;8.492;2023-08-21T06:34:58;10.80;;;9.20;;
64037;SDS011;54641;50.168;8.492;2023-08-21T06:37:29;10.50;;;8.70;;
64037;SDS011;54641;50.168;8.492;2023-08-21T06:39:59;11.10;;;8.30;;
64037;SDS011;54641;50.168;8.492;2023-08-21T06:42:30;11.50;;;8.60;;
64037;SDS011;54641;50.168;8.492;2023-08-21T06:45:00;9.10;;;8.10;;
64037;SDS011;54641;50.168;8.492;2023-08-21T06:47:32;11.00;;;9.20;;
64037;SDS011;54641;50.168;8.492;2023-08-21T06:50:03;11.60;;;8.70;;
64037;SDS011;54641;50.168;8.492;2023-08-21T06:52:34;9.80;;;8.90;;
64037;SDS011;54641;50.168;8.492;2023-08-21T06:55:06;10.80;;;8.90;;
64037;SDS011;54641;50.168;8.492;2023-08-21T06:57:37;11.70;;;9.70;;
64037;SDS011;54641;50.168;8.492;2023-08-21T07:00:08;11.20;;;9.10;;
64037;SDS011;54641;50.168;8.492;2023-08-21T07:02:40;12.70;;;8.60;;
64037;SDS011;54641;50.168;8.492;2023-08-21T07:05:10;12.50;;;9.00;;
64037;SDS011;54641;50.168;8.492;2023-08-21T07:07:41;9.80;;;8.70;;
64037;SDS011;54641;50.168;8.492;2023-08-21T07:10:11;10.20;;;9.30;;
64037;SDS011;54641;50.168;8.492;2023-08-21T07:12:42;12.60;;;9.80;;
64037;SDS011;54641;50.168;8.492;2023-08-21T07:15:13;10.90;;;9.40;;
64037;SDS011;54641;50.168;8.492;2023-08-21T07:17:44;10.80;;;9.20;;
64037;SDS011;54641;50.168;8.492;2023-08-21T07:20:14;9.80;;;8.70;;
64037;SDS011;54641;50.168;8.492;2023-08-21T07:22:45;10.50;;;9.40;;
64037;SDS011;54641;50.168;8.492;2023-08-21T07:25:15;10.40;;;9.30;;
64037;SDS011;54641;50.168;8.492;2023-08-21T07:27:47;12.60;;;10.00;;
64037;SDS011;54641;50.168;8.492;2023-08-21T07:30:18;10.60;;;9.50;;
64037;SDS011;54641;50.168;8.492;2023-08-21T07:32:49;21.70;;;18.10;;
64037;SDS011;54641;50.168;8.492;2023-08-21T07:35:21;20.30;;;16.70;;
64037;SDS011;54641;50.168;8.492;2023-08-21T07:37:51;51.30;;;34.20;;
64037;SDS011;54641;50.168;8.492;2023-08-21T07:40:22;38.40;;;25.70;;
64037;SDS011;54641;50.168;8.492;2023-08-21T07:42:53;34.10;;;24.20;;
64037;SDS011;54641;50.168;8.492;2023-08-21T07:45:24;28.90;;;20.40;;
64037;SDS011;54641;50.168;8.492;2023-08-21T07:47:54;18.80;;;16.00;;
64037;SDS011;54641;50.168;8.492;2023-08-21T07:50:41;12.10;;;9.80;;
64037;SDS011;54641;50.168;8.492;2023-08-21T07:53:13;20.70;;;16.10;;
64037;SDS011;54641;50.168;8.492;2023-08-21T07:55:43;15.20;;;12.20;;
64037;SDS011;54641;50.168;8.492;2023-08-21T07:58:14;12.10;;;10.70;;
64037;SDS011;54641;50.168;8.492;2023-08-21T08:00:44;12.30;;;10.10;;
64037;SDS011;54641;50.168;8.492;2023-08-21T08:05:45;12.40;;;10.60;;
64037;SDS011;54641;50.168;8.492;2023-08-21T08:08:22;11.40;;;10.20;;
64037;SDS011;54641;50.168;8.492;2023-08-21T08:10:53;20.20;;;13.20;;
64037;SDS011;54641;50.168;8.492;2023-08-21T08:13:23;26.90;;;19.60;;
64037;SDS011;54641;50.168;8.492;2023-08-21T08:15:53;23.70;;;16.80;;
64037;SDS011;54641;50.168;8.492;2023-08-21T08:18:24;21.00;;;15.20;;
64037;SDS011;54641;50.168;8.492;2023-08-21T08:20:54;19.40;;;14.00;;
64037;SDS011;54641;50.168;8.492;2023-08-21T08:23:24;19.70;;;15.50;;
64037;SDS011;54641;50.168;8.492;2023-08-21T08:25:55;15.10;;;13.40;;
64037;SDS011;54641;50.168;8.492;2023-08-21T08:28:25;19.80;;;14.40;;
64037;SDS011;54641;50.168;8.492;2023-08-21T08:30:56;17.60;;;12.90;;
64037;SDS011;54641;50.168;8.492;2023-08-21T08:33:26;13.10;;;11.80;;
64037;SDS011;54641;50.168;8.492;2023-08-21T08:35:57;16.90;;;13.20;;
64037;SDS011;54641;50.168;8.492;2023-08-21T08:38:27;15.10;;;13.60;;
64037;SDS011;54641;50.168;8.492;2023-08-21T08:40:57;15.40;;;12.50;;
64037;SDS011;54641;50.168;8.492;2023-08-21T08:43:31;14.00;;;12.20;;
64037;SDS011;54641;50.168;8.492;2023-08-21T08:46:03;31.00;;;13.60;;
64037;SDS011;54641;50.168;8.492;2023-08-21T08:48:34;15.10;;;12.10;;
64037;SDS011;54641;50.168;8.492;2023-08-21T08:51:05;15.00;;;12.40;;
64037;SDS011;54641;50.168;8.492;2023-08-21T08:53:35;13.90;;;11.20;;
64037;SDS011;54641;50.168;8.492;2023-08-21T08:56:06;14.40;;;13.00;;
64037;SDS011;54641;50.168;8.492;2023-08-21T08:58:37;12.20;;;10.90;;
64037;SDS011;54641;50.168;8.492;2023-08-21T09:01:10;13.20;;;11.10;;
64037;SDS011;54641;50.168;8.492;2023-08-21T09:03:40;13.40;;;11.10;;
64037;SDS011;54641;50.168;8.492;2023-08-21T09:06:11;16.10;;;11.50;;
64037;SDS011;54641;50.168;8.492;2023-08-21T09:08:43;14.50;;;11.60;;
64037;SDS011;54641;50.168;8.492;2023-08-21T09:11:23;13.60;;;10.60;;
64037;SDS011;54641;50.168;8.492;2023-08-21T09:13:54;12.90;;;11.50;;
64037;SDS011;54641;50.168;8.492;2023-08-21T09:16:25;15.70;;;12.20;;
64037;SDS011;54641;50.168;8.492;2023-08-21T09:18:56;16.00;;;11.40;;
64037;SDS011;54641;50.168;8.492;2023-08-21T09:21:26;11.70;;;10.50;;
64037;SDS011;54641;50.168;8.492;2023-08-21T09:23:58;13.80;;;11.10;;
64037;SDS011;54641;50.168;8.492;2023-08-21T09:26:31;13.10;;;11.00;;
64037;SDS011;54641;50.168;8.492;2023-08-21T09:31:33;13.10;;;11.10;;
64037;SDS011;54641;50.168;8.492;2023-08-21T09:34:07;12.90;;;11.40;;
64037;SDS011;54641;50.168;8.492;2023-08-21T09:36:38;11.60;;;10.40;;
64037;SDS011;54641;50.168;8.492;2023-08-21T09:39:12;11.50;;;10.40;;
64037;SDS011;54641;50.168;8.492;2023-08-21T09:41:48;11.60;;;10.40;;
64037;SDS011;54641;50.168;8.492;2023-08-21T09:44:25;12.20;;;10.50;;
64037;SDS011;54641;50.168;8.492;2023-08-21T09:46:55;14.90;;;10.40;;
64037;SDS011;54641;50.168;8.492;2023-08-21T09:49:26;11.70;;;10.20;;
64037;SDS011;54641;50.168;8.492;2023-08-21T09:51:56;12.60;;;10.10;;
64037;SDS011;54641;50.168;8.492;2023-08-21T09:54:27;11.20;;;10.00;;
64037;SDS011;54641;50.168;8.492;2023-08-21T09:56:59;12.20;;;9.90;;
64037;SDS011;54641;50.168;8.492;2023-08-21T09:59:31;11.20;;;10.10;;
64037;SDS011;54641;50.168;8.492;2023-08-21T10:02:02;12.30;;;10.50;;
64037;SDS011;54641;50.168;8.492;2023-08-21T10:04:33;13.00;;;10.80;;
64037;SDS011;54641;50.168;8.492;2023-08-21T10:07:04;11.00;;;9.80;;
64037;SDS011;54641;50.168;8.492;2023-08-21T10:09:35;11.50;;;10.30;;
64037;SDS011;54641;50.168;8.492;2023-08-21T10:12:07;12.90;;;10.50;;
64037;SDS011;54641;50.168;8.492;2023-08-21T10:14:39;11.60;;;10.40;;
64037;SDS011;54641;50.168;8.492;2023-08-21T10:17:09;14.30;;;11.30;;
64037;SDS011;54641;50.168;8.492;2023-08-21T10:19:40;19.10;;;16.30;;
64037;SDS011;54641;50.168;8.492;2023-08-21T10:22:10;16.00;;;11.60;;
64037;SDS011;54641;50.168;8.492;2023-08-21T10:24:40;11.50;;;10.30;;
64037;SDS011;54641;50.168;8.492;2023-08-21T10:27:11;12.00;;;10.60;;
64037;SDS011;54641;50.168;8.492;2023-08-21T10:29:41;10.60;;;9.50;;
64037;SDS011;54641;50.168;8.492;2023-08-21T10:32:16;10.70;;;9.70;;
64037;SDS011;54641;50.168;8.492;2023-08-21T10:34:52;11.50;;;10.30;;
64037;SDS011;54641;50.168;8.492;2023-08-21T10:37:23;11.30;;;9.70;;
64037;SDS011;54641;50.168;8.492;2023-08-21T10:39:56;10.60;;;9.60;;
64037;SDS011;54641;50.168;8.492;2023-08-21T10:42:39;12.00;;;9.50;;
64037;SDS011;54641;50.168;8.492;2023-08-21T10:45:13;11.10;;;9.20;;
64037;SDS011;54641;50.168;8.492;2023-08-21T10:47:43;12.00;;;9.20;;
64037;SDS011;54641;50.168;8.492;2023-08-21T10:50:15;12.40;;;9.60;;
64037;SDS011;54641;50.168;8.492;2023-08-21T10:52:45;11.00;;;9.50;;
64037;SDS011;54641;50.168;8.492;2023-08-21T10:55:15;10.30;;;8.80;;
64037;SDS011;54641;50.168;8.492;2023-08-21T11:00:17;10.50;;;9.30;;
64037;SDS011;54641;50.168;8.492;2023-08-21T11:02:48;10.30;;;8.70;;
64037;SDS011;54641;50.168;8.492;2023-08-21T11:05:19;11.10;;;10.00;;
64037;SDS011;54641;50.168;8.492;2023-08-21T11:07:49;10.10;;;9.10;;
64037;SDS011;54641;50.168;8.492;2023-08-21T11:10:22;10.50;;;9.00;;
64037;SDS011;54641;50.168;8.492;2023-08-21T11:12:53;10.30;;;8.70;;
64037;SDS011;54641;50.168;8.492;2023-08-21T11:15:25;9.50;;;8.60;;
64037;SDS011;54641;50.168;8.492;2023-08-21T11:17:57;9.20;;;8.10;;
64037;SDS011;54641;50.168;8.492;2023-08-21T11:20:29;8.30;;;7.40;;
64037;SDS011;54641;50.168;8.492;2023-08-21T11:25:30;8.60;;;7.80;;
64037;SDS011;54641;50.168;8.492;2023-08-21T11:28:00;9.40;;;8.30;;
64037;SDS011;54641;50.168;8.492;2023-08-21T11:30:32;10.50;;;7.70;;
64037;SDS011;54641;50.168;8.492;2023-08-21T11:33:06;9.00;;;7.10;;
64037;SDS011;54641;50.168;8.492;2023-08-21T11:35:38;7.90;;;6.80;;
64037;SDS011;54641;50.168;8.492;2023-08-21T11:38:14;9.10;;;8.20;;
64037;SDS011;54641;50.168;8.492;2023-08-21T11:40:52;9.10;;;7.70;;
64037;SDS011;54641;50.168;8.492;2023-08-21T11:43:33;12.40;;;8.10;;
64037;SDS011;54641;50.168;8.492;2023-08-21T11:46:04;9.50;;;8.60;;
64037;SDS011;54641;50.168;8.492;2023-08-21T11:51:05;10.40;;;8.60;;
64037;SDS011;54641;50.168;8.492;2023-08-21T11:53:36;9.80;;;8.80;;
64037;SDS011;54641;50.168;8.492;2023-08-21T11:56:11;10.30;;;8.80;;
64037;SDS011;54641;50.168;8.492;2023-08-21T11:58:42;9.70;;;8.70;;
64037;SDS011;54641;50.168;8.492;2023-08-21T12:01:19;10.00;;;8.80;;
64037;SDS011;54641;50.168;8.492;2023-08-21T12:03:50;10.40;;;8.40;;
64037;SDS011;54641;50.168;8.492;2023-08-21T12:06:24;11.40;;;9.20;;
64037;SDS011;54641;50.168;8.492;2023-08-21T12:08:54;11.40;;;7.80;;
64037;SDS011;54641;50.168;8.492;2023-08-21T12:11:25;10.90;;;8.50;;
64037;SDS011;54641;50.168;8.492;2023-08-21T12:13:55;8.80;;;7.80;;
64037;SDS011;54641;50.168;8.492;2023-08-21T12:16:26;8.70;;;7.20;;
64037;SDS011;54641;50.168;8.492;2023-08-21T12:18:56;9.50;;;7.60;;
64037;SDS011;54641;50.168;8.492;2023-08-21T12:21:27;10.30;;;7.20;;
64037;SDS011;54641;50.168;8.492;2023-08-21T12:23:58;11.00;;;6.90;;
64037;SDS011;54641;50.168;8.492;2023-08-21T12:26:28;8.80;;;7.10;;
64037;SDS011;54641;50.168;8.492;2023-08-21T12:29:15;8.90;;;6.10;;
64037;SDS011;54641;50.168;8.492;2023-08-21T12:31:46;11.60;;;6.30;;
64037;SDS011;54641;50.168;8.492;2023-08-21T12:34:16;7.50;;;6.00;;
64037;SDS011;54641;50.168;8.492;2023-08-21T12:36:46;7.20;;;6.10;;
64037;SDS011;54641;50.168;8.492;2023-08-21T12:39:18;8.80;;;6.00;;
64037;SDS011;54641;50.168;8.492;2023-08-21T12:41:49;7.00;;;6.00;;
64037;SDS011;54641;50.168;8.492;2023-08-21T12:44:20;9.70;;;5.90;;
64037;SDS011;54641;50.168;8.492;2023-08-21T12:46:50;7.40;;;5.90;;
64037;SDS011;54641;50.168;8.492;2023-08-21T12:49:21;8.60;;;6.40;;
64037;SDS011;54641;50.168;8.492;2023-08-21T12:51:51;6.00;;;4.60;;
64037;SDS011;54641;50.168;8.492;2023-08-21T12:56:52;5.50;;;4.20;;
64037;SDS011;54641;50.168;8.492;2023-08-21T12:59:24;5.60;;;4.20;;
64037;SDS011;54641;50.168;8.492;2023-08-21T13:01:54;5.20;;;4.60;;
64037;SDS011;54641;50.168;8.492;2023-08-21T13:04:25;6.50;;;4.80;;
64037;SDS011;54641;50.168;8.492;2023-08-21T13:06:55;7.00;;;5.30;;
64037;SDS011;54641;50.168;8.492;2023-08-21T13:09:25;6.40;;;5.50;;
64037;SDS011;54641;50.168;8.492;2023-08-21T13:11:56;5.90;;;5.20;;
64037;SDS011;54641;50.168;8.492;2023-08-21T13:14:26;6.70;;;6.10;;
64037;SDS011;54641;50.168;8.492;2023-08-21T13:16:59;6.50;;;5.90;;
64037;SDS011;54641;50.168;8.492;2023-08-21T13:19:30;7.60;;;6.10;;
64037;SDS011;54641;50.168;8.492;2023-08-21T13:22:00;8.00;;;6.90;;
64037;SDS011;54641;50.168;8.492;2023-08-21T13:24:31;7.70;;;6.30;;
64037;SDS011;54641;50.168;8.492;2023-08-21T13:27:01;7.20;;;6.40;;
64037;SDS011;54641;50.168;8.492;2023-08-21T13:29:33;8.90;;;6.40;;
64037;SDS011;54641;50.168;8.492;2023-08-21T13:32:03;8.30;;;6.70;;
64037;SDS011;54641;50.168;8.492;2023-08-21T13:34:34;7.10;;;6.00;;
64037;SDS011;54641;50.168;8.492;2023-08-21T13:37:04;8.10;;;6.30;;
64037;SDS011;54641;50.168;8.492;2023-08-21T13:39:34;9.30;;;6.50;;
64037;SDS011;54641;50.168;8.492;2023-08-21T13:42:05;10.70;;;7.00;;
64037;SDS011;54641;50.168;8.492;2023-08-21T13:44:36;8.20;;;6.20;;
64037;SDS011;54641;50.168;8.492;2023-08-21T13:47:06;6.80;;;5.80;;
64037;SDS011;54641;50.168;8.492;2023-08-21T13:49:37;7.80;;;5.70;;
64037;SDS011;54641;50.168;8.492;2023-08-21T13:52:07;7.10;;;6.00;;
64037;SDS011;54641;50.168;8.492;2023-08-21T13:54:37;6.30;;;5.60;;
64037;SDS011;54641;50.168;8.492;2023-08-21T13:57:07;7.60;;;6.00;;
64037;SDS011;54641;50.168;8.492;2023-08-21T13:59:38;6.20;;;5.60;;
64037;SDS011;54641;50.168;8.492;2023-08-21T14:02:08;7.00;;;6.00;;
64037;SDS011;54641;50.168;8.492;2023-08-21T14:04:39;6.40;;;5.70;;
64037;SDS011;54641;50.168;8.492;2023-08-21T14:07:09;6.30;;;5.60;;
64037;SDS011;54641;50.168;8.492;2023-08-21T14:09:39;7.10;;;5.60;;
64037;SDS011;54641;50.168;8.492;2023-08-21T14:12:09;10.10;;;5.70;;
64037;SDS011;54641;50.168;8.492;2023-08-21T14:14:39;6.20;;;5.60;;
64037;SDS011;54641;50.168;8.492;2023-08-21T14:17:10;6.90;;;5.40;;
64037;SDS011;54641;50.168;8.492;2023-08-21T14:19:40;8.30;;;5.50;;
64037;SDS011;54641;50.168;8.492;2023-08-21T14:24:39;6.70;;;5.30;;
64037;SDS011;54641;50.168;8.492;2023-08-21T14:27:09;6.90;;;5.80;;
64037;SDS011;54641;50.168;8.492;2023-08-21T14:32:10;5.60;;;4.80;;
64037;SDS011;54641;50.168;8.492;2023-08-21T14:34:40;6.90;;;5.90;;
64037;SDS011;54641;50.168;8.492;2023-08-21T14:39:42;5.90;;;5.20;;
64037;SDS011;54641;50.168;8.492;2023-08-21T14:44:42;6.70;;;5.20;;
64037;SDS011;54641;50.168;8.492;2023-08-21T14:47:12;4.80;;;4.20;;
64037;SDS011;54641;50.168;8.492;2023-08-21T14:49:42;5.50;;;5.00;;
64037;SDS011;54641;50.168;8.492;2023-08-21T14:52:12;6.70;;;4.60;;
64037;SDS011;54641;50.168;8.492;2023-08-21T14:54:43;5.80;;;4.90;;
64037;SDS011;54641;50.168;8.492;2023-08-21T14:57:13;6.60;;;4.90;;
64037;SDS011;54641;50.168;8.492;2023-08-21T14:59:43;5.60;;;4.70;;
64037;SDS011;54641;50.168;8.492;2023-08-21T15:02:13;6.00;;;4.70;;
64037;SDS011;54641;50.168;8.492;2023-08-21T15:04:44;7.00;;;5.00;;
64037;SDS011;54641;50.168;8.492;2023-08-21T15:07:14;5.40;;;4.70;;
64037;SDS011;54641;50.168;8.492;2023-08-21T15:09:44;5.00;;;4.30;;
64037;SDS011;54641;50.168;8.492;2023-08-21T15:12:15;6.00;;;4.80;;
64037;SDS011;54641;50.168;8.492;2023-08-21T15:14:45;8.10;;;4.70;;
64037;SDS011;54641;50.168;8.492;2023-08-21T15:17:15;6.10;;;4.60;;
64037;SDS011;54641;50.168;8.492;2023-08-21T15:19:47;6.90;;;4.30;;
64037;SDS011;54641;50.168;8.492;2023-08-21T15:22:17;4.60;;;3.60;;
64037;SDS011;54641;50.168;8.492;2023-08-21T15:24:49;4.10;;;3.50;;
64037;SDS011;54641;50.168;8.492;2023-08-21T15:27:19;5.80;;;4.00;;
64037;SDS011;54641;50.168;8.492;2023-08-21T15:29:49;6.10;;;3.80;;
64037;SDS011;54641;50.168;8.492;2023-08-21T15:32:19;6.10;;;3.70;;